createdAt,value
2022-10-12T00:00:06.540Z,100562.66
2022-10-12T00:02:40.996Z,100557.72
2022-10-12T00:05:08.780Z,100560.78
2022-10-12T00:07:36.480Z,100550.66
2022-10-12T00:10:04.568Z,100562.28
2022-10-12T00:12:32.237Z,100557.78
2022-10-12T00:14:59.560Z,100562.34
2022-10-12T00:17:26.949Z,100554.47
2022-10-12T00:19:54.579Z,100557.31
2022-10-12T00:22:21.906Z,100552.53
2022-10-12T00:24:49.249Z,100559.53
2022-10-12T00:27:16.847Z,100558.94
2022-10-12T00:29:44.177Z,100560.03
2022-10-12T00:32:11.494Z,100554.63
2022-10-12T00:34:39.105Z,100559.53
2022-10-12T00:37:06.471Z,100562.19
2022-10-12T00:39:33.790Z,100557.25
2022-10-12T00:42:01.383Z,100564.19
2022-10-12T00:44:43.815Z,100559.34
2022-10-12T00:47:31.098Z,100555.63
2022-10-12T00:50:01.160Z,100553.97
2022-10-12T00:52:34.749Z,100552.09
2022-10-12T00:55:02.960Z,100548.13
2022-10-12T00:57:30.599Z,100555.47
2022-10-12T01:00:05.409Z,100558.72
2022-10-12T01:02:34.735Z,100564.66
2022-10-12T01:05:03.120Z,100557.88
2022-10-12T01:07:30.794Z,100558.72
2022-10-12T01:09:58.400Z,100561.38
2022-10-12T01:12:26.938Z,100564.91
2022-10-12T01:14:54.467Z,100571.88
2022-10-12T01:17:26.247Z,100567.72
2022-10-12T01:20:35.175Z,100574.53
2022-10-12T01:23:18.288Z,100570.78
2022-10-12T01:26:17.050Z,100582.81
2022-10-12T01:29:12.516Z,100579.34
2022-10-12T01:31:44.859Z,100573.25
2022-10-12T01:34:17.595Z,100583.13
2022-10-12T01:36:48.890Z,100585.63
2022-10-12T01:39:31.310Z,100585.78
2022-10-12T01:42:01.321Z,100583.66
2022-10-12T01:44:30.194Z,100583.50
2022-10-12T01:46:57.513Z,100580.84
2022-10-12T01:49:28.401Z,100582.03
2022-10-12T01:52:30.585Z,100591.66
2022-10-12T01:55:13.223Z,100581.84
2022-10-12T01:57:57.485Z,100587.81
2022-10-12T02:00:24.832Z,100589.37
2022-10-12T02:03:13.513Z,100596.41
2022-10-12T02:06:01.174Z,100592.09
2022-10-12T02:08:41.060Z,100595.97
2022-10-12T02:11:16.873Z,100597.94
2022-10-12T02:13:47.287Z,100594.66
2022-10-12T02:16:18.313Z,100583.06
2022-10-12T02:18:48.262Z,100590.88
2022-10-12T02:21:21.648Z,100588.31
2022-10-12T02:23:51.035Z,100590.66
2022-10-12T02:26:19.390Z,100582.78
2022-10-12T02:28:47.813Z,100582.78
2022-10-12T02:31:17.370Z,100582.25
2022-10-12T02:33:56.740Z,100584.56
2022-10-12T02:36:30.673Z,100582.06
2022-10-12T02:39:08.221Z,100582.00
2022-10-12T02:41:41.004Z,100579.53
2022-10-12T02:44:11.150Z,100580.41
2022-10-12T02:46:40.307Z,100579.19
2022-10-12T02:49:09.271Z,100580.53
2022-10-12T02:51:37.798Z,100588.47
2022-10-12T02:54:05.171Z,100585.16
2022-10-12T02:56:32.510Z,100586.09
2022-10-12T02:59:00.105Z,100586.78
2022-10-12T03:01:27.571Z,100594.03
2022-10-12T03:03:54.940Z,100588.56
2022-10-12T03:06:23.012Z,100586.31
2022-10-12T03:08:51.734Z,100589.53
2022-10-12T03:11:19.062Z,100588.50
2022-10-12T03:13:46.690Z,100594.25
2022-10-12T03:16:14.089Z,100590.59
2022-10-12T03:18:41.546Z,100598.53
2022-10-12T03:21:10.901Z,100594.25
2022-10-12T03:23:38.482Z,100599.56
2022-10-12T03:26:06.130Z,100599.66
2022-10-12T03:28:33.991Z,100598.12
2022-10-12T03:31:02.145Z,100596.97
2022-10-12T03:33:29.486Z,100590.19
2022-10-12T03:35:57.197Z,100594.53
2022-10-12T03:38:24.604Z,100598.94
2022-10-12T03:40:51.934Z,100592.66
2022-10-12T03:43:19.694Z,100597.53
2022-10-12T03:45:47.033Z,100591.16
2022-10-12T03:48:14.450Z,100598.50
2022-10-12T03:50:42.059Z,100592.47
2022-10-12T03:53:10.423Z,100596.53
2022-10-12T03:55:37.794Z,100596.78
2022-10-12T03:58:05.400Z,100590.50
2022-10-12T04:00:32.728Z,100596.81
2022-10-12T04:03:02.144Z,100592.75
2022-10-12T04:05:30.163Z,100588.50
2022-10-12T04:07:57.675Z,100584.09
2022-10-12T04:10:25.532Z,100587.62
2022-10-12T04:12:52.975Z,100581.66
2022-10-12T04:15:20.304Z,100589.94
2022-10-12T04:17:47.897Z,100585.84
2022-10-12T04:20:15.265Z,100584.38
2022-10-12T04:22:42.611Z,100582.75
2022-10-12T04:25:11.256Z,100586.50
2022-10-12T04:27:38.836Z,100589.81
2022-10-12T04:30:06.976Z,100586.50
2022-10-12T04:32:34.570Z,100594.56
2022-10-12T04:35:01.938Z,100593.37
2022-10-12T04:37:29.588Z,100594.44
2022-10-12T04:39:59.704Z,100594.09
2022-10-12T04:42:30.139Z,100590.50
2022-10-12T04:44:57.733Z,100587.34
2022-10-12T04:47:25.219Z,100597.34
2022-10-12T04:49:52.574Z,100595.75
2022-10-12T04:52:20.445Z,100593.16
2022-10-12T04:54:47.789Z,100597.63
2022-10-12T04:57:15.115Z,100605.34
2022-10-12T04:59:42.728Z,100602.75
2022-10-12T05:02:10.055Z,100606.28
2022-10-12T05:04:37.375Z,100610.03
2022-10-12T05:07:04.950Z,100604.25
2022-10-12T05:09:32.314Z,100597.38
2022-10-12T05:11:59.626Z,100611.19
2022-10-12T05:14:29.182Z,100604.56
2022-10-12T05:16:58.422Z,100608.41
2022-10-12T05:19:25.776Z,100618.56
2022-10-12T05:21:54.681Z,100614.78
2022-10-12T05:24:22.075Z,100619.75
2022-10-12T05:26:49.434Z,100611.94
2022-10-12T05:29:17.025Z,100615.47
2022-10-12T05:31:44.356Z,100617.34
2022-10-12T05:34:11.702Z,100619.87
2022-10-12T05:36:39.287Z,100626.31
2022-10-12T05:39:06.654Z,100615.00
2022-10-12T05:41:33.964Z,100622.97
2022-10-12T05:44:01.559Z,100625.72
2022-10-12T05:46:28.917Z,100628.69
2022-10-12T05:48:56.254Z,100628.13
2022-10-12T05:51:28.544Z,100630.81
2022-10-12T05:53:56.556Z,100631.84
2022-10-12T05:56:24.144Z,100632.56
2022-10-12T05:58:51.498Z,100640.19
2022-10-12T06:01:18.844Z,100632.88
2022-10-12T06:03:46.431Z,100637.28
2022-10-12T06:06:13.821Z,100641.84
2022-10-12T06:08:41.182Z,100639.94
2022-10-12T06:11:08.822Z,100646.22
2022-10-12T06:13:36.171Z,100644.66
2022-10-12T06:16:03.598Z,100651.53
2022-10-12T06:18:31.413Z,100646.19
2022-10-12T06:23:46.491Z,100649.06
2022-10-12T06:26:14.847Z,100649.47
2022-10-12T06:28:43.543Z,100646.31
2022-10-12T06:31:11.239Z,100646.75
2022-10-12T06:33:38.598Z,100658.03
2022-10-12T06:36:06.229Z,100649.88
2022-10-12T06:38:33.847Z,100651.94
2022-10-12T06:41:01.160Z,100658.19
2022-10-12T06:43:28.486Z,100656.12
2022-10-12T06:46:00.532Z,100656.59
2022-10-12T06:48:27.921Z,100671.53
2022-10-12T06:50:55.760Z,100674.66
2022-10-12T06:53:23.120Z,100666.94
2022-10-12T06:55:50.469Z,100664.56
2022-10-12T06:58:18.063Z,100673.47
2022-10-12T07:00:45.504Z,100671.81
2022-10-12T07:03:13.765Z,100676.31
2022-10-12T07:05:41.358Z,100679.41
2022-10-12T07:08:08.690Z,100673.84
2022-10-12T07:10:36.023Z,100665.84
2022-10-12T07:13:03.759Z,100664.75
2022-10-12T07:15:31.087Z,100663.91
2022-10-12T07:17:58.481Z,100671.94
2022-10-12T07:20:26.270Z,100675.97
2022-10-12T07:22:53.657Z,100668.69
2022-10-12T07:25:22.344Z,100670.09
2022-10-12T07:27:50.200Z,100672.09
2022-10-12T07:30:17.573Z,100674.22
2022-10-12T07:32:46.403Z,100671.06
2022-10-12T07:35:14.083Z,100657.56
2022-10-12T07:37:41.716Z,100664.81
2022-10-12T07:40:09.634Z,100667.69
2022-10-12T07:42:48.912Z,100671.06
2022-10-12T07:45:25.041Z,100664.50
2022-10-12T07:47:52.651Z,100672.72
2022-10-12T07:50:19.982Z,100665.25
2022-10-12T07:52:47.295Z,100669.28
2022-10-12T07:55:15.176Z,100668.47
2022-10-12T07:57:44.342Z,100668.78
2022-10-12T08:00:12.000Z,100667.97
2022-10-12T08:02:39.225Z,100667.94
2022-10-12T08:05:07.346Z,100675.59
2022-10-12T08:07:34.727Z,100676.25
2022-10-12T08:10:02.084Z,100676.84
2022-10-12T08:12:29.687Z,100674.06
2022-10-12T08:14:57.025Z,100678.22
2022-10-12T08:17:24.498Z,100681.19
2022-10-12T08:19:52.160Z,100676.22
2022-10-12T08:22:19.509Z,100671.59
2022-10-12T08:24:46.906Z,100672.44
2022-10-12T08:27:14.497Z,100668.47
2022-10-12T08:29:41.896Z,100676.28
2022-10-12T08:32:09.271Z,100673.56
2022-10-12T08:34:36.895Z,100675.69
2022-10-12T08:37:04.338Z,100664.09
2022-10-12T08:39:31.690Z,100671.78
2022-10-12T08:42:24.163Z,100672.72
2022-10-12T08:45:22.449Z,100670.81
2022-10-12T08:47:52.866Z,100668.50
2022-10-12T08:50:52.364Z,100659.81
2022-10-12T08:53:27.048Z,100667.22
2022-10-12T08:55:56.472Z,100666.09
2022-10-12T08:58:27.936Z,100670.53
2022-10-12T09:01:05.525Z,100670.50
2022-10-12T09:03:39.240Z,100678.44
2022-10-12T09:06:40.271Z,100672.03
2022-10-12T09:09:13.614Z,100670.94
2022-10-12T09:11:53.868Z,100675.59
2022-10-12T09:14:25.226Z,100674.63
2022-10-12T09:16:55.825Z,100674.34
2022-10-12T09:19:34.846Z,100668.59
2022-10-12T09:22:03.132Z,100671.78
2022-10-12T09:24:35.419Z,100676.97
2022-10-12T09:27:14.228Z,100670.34
2022-10-12T09:29:48.628Z,100677.63
2022-10-12T09:32:31.547Z,100680.50
2022-10-12T09:34:59.855Z,100675.41
2022-10-12T09:37:32.111Z,100667.22
2022-10-12T09:39:59.905Z,100670.75
2022-10-12T09:42:27.388Z,100668.69
2022-10-12T09:45:02.167Z,100668.81
2022-10-12T09:47:31.698Z,100666.78
2022-10-12T09:50:02.160Z,100666.69
2022-10-12T09:52:39.740Z,100672.94
2022-10-12T09:55:14.596Z,100667.22
2022-10-12T09:57:44.824Z,100665.47
2022-10-12T10:00:38.438Z,100668.81
2022-10-12T10:03:06.049Z,100676.81
2022-10-12T10:05:35.520Z,100673.53
2022-10-12T10:08:14.797Z,100670.78
2022-10-12T10:11:16.167Z,100676.69
2022-10-12T10:13:47.470Z,100671.28
2022-10-12T10:16:16.621Z,100677.56
2022-10-12T10:18:48.639Z,100672.94
2022-10-12T10:21:25.958Z,100671.56
2022-10-12T10:24:04.956Z,100677.34
2022-10-12T10:26:59.912Z,100671.50
2022-10-12T10:29:41.520Z,100662.81
2022-10-12T10:32:28.879Z,100670.69
2022-10-12T10:35:04.040Z,100666.72
2022-10-12T10:37:32.161Z,100675.56
2022-10-12T10:39:59.809Z,100671.41
2022-10-12T10:42:31.587Z,100666.38
2022-10-12T10:45:02.368Z,100672.06
2022-10-12T10:47:32.409Z,100670.06
2022-10-12T10:50:01.654Z,100676.63
2022-10-12T10:52:34.891Z,100674.91
2022-10-12T10:55:19.106Z,100671.94
2022-10-12T10:58:06.500Z,100669.28
2022-10-12T11:00:41.166Z,100662.53
2022-10-12T11:06:15.318Z,100653.66
2022-10-12T11:08:43.643Z,100658.06
2022-10-12T11:11:20.616Z,100658.31
2022-10-12T11:14:11.821Z,100656.12
2022-10-12T11:16:49.627Z,100661.25
2022-10-12T11:19:34.224Z,100659.72
2022-10-12T11:22:10.847Z,100659.97
2022-10-12T11:24:43.837Z,100658.91
2022-10-12T11:27:13.642Z,100652.47
2022-10-12T11:29:41.639Z,100653.56
2022-10-12T11:32:22.920Z,100654.34
2022-10-12T11:34:56.312Z,100651.50
2022-10-12T11:37:33.657Z,100646.63
2022-10-12T11:40:03.818Z,100646.75
2022-10-12T11:42:43.216Z,100646.87
2022-10-12T11:45:34.420Z,100647.56
2022-10-12T11:48:07.067Z,100645.00
2022-10-12T11:50:39.834Z,100642.53
2022-10-12T11:53:12.752Z,100645.31
2022-10-12T11:55:52.305Z,100636.44
2022-10-12T11:58:36.288Z,100639.88
2022-10-12T12:01:24.007Z,100637.50
2022-10-12T12:04:29.095Z,100631.47
2022-10-12T12:06:59.173Z,100635.28
2022-10-12T12:09:45.315Z,100635.78
2022-10-12T12:12:18.922Z,100631.84
2022-10-12T12:14:55.374Z,100625.72
2022-10-12T12:17:22.678Z,100625.19
2022-10-12T12:19:54.798Z,100623.97
2022-10-12T12:22:48.305Z,100623.72
2022-10-12T12:25:20.427Z,100617.84
2022-10-12T12:27:59.085Z,100615.97
2022-10-12T12:30:33.042Z,100613.37
2022-10-12T12:33:20.660Z,100617.75
2022-10-12T12:35:58.854Z,100620.88
2022-10-12T12:38:31.281Z,100612.78
2022-10-12T12:41:04.705Z,100610.09
2022-10-12T12:43:31.914Z,100614.91
2022-10-12T12:46:00.342Z,100609.34
2022-10-12T12:48:39.717Z,100611.91
2022-10-12T12:51:19.186Z,100601.09
2022-10-12T12:53:57.858Z,100614.34
2022-10-12T12:56:41.251Z,100606.00
2022-10-12T12:59:21.976Z,100610.63
2022-10-12T13:02:15.171Z,100612.44
2022-10-12T13:05:01.427Z,100602.06
2022-10-12T13:07:52.631Z,100600.97
2022-10-12T13:10:43.077Z,100611.13
2022-10-12T13:13:16.765Z,100608.59
2022-10-12T13:15:44.001Z,100599.19
2022-10-12T13:18:34.502Z,100600.25
2022-10-12T13:21:06.646Z,100598.31
2022-10-12T13:23:34.632Z,100594.81
2022-10-12T13:26:07.581Z,100598.53
2022-10-12T13:28:38.192Z,100596.16
2022-10-12T13:31:14.571Z,100597.31
2022-10-12T13:33:58.491Z,100590.19
2022-10-12T13:36:26.697Z,100591.75
2022-10-12T13:39:08.772Z,100593.03
2022-10-12T13:41:36.180Z,100600.34
2022-10-12T13:44:07.685Z,100590.03
2022-10-12T13:46:41.872Z,100588.28
2022-10-12T13:49:12.562Z,100592.25
2022-10-12T13:51:39.860Z,100589.53
2022-10-12T13:54:42.400Z,100588.91
2022-10-12T13:57:38.051Z,100582.75
2022-10-12T14:00:19.060Z,100582.59
2022-10-12T14:03:02.209Z,100578.34
2022-10-12T14:05:33.911Z,100578.12
2022-10-12T14:08:07.170Z,100585.53
2022-10-12T14:10:36.599Z,100585.97
2022-10-12T14:13:05.094Z,100586.09
2022-10-12T14:15:35.650Z,100575.00
2022-10-12T14:18:03.395Z,100584.66
2022-10-12T14:20:33.191Z,100575.81
2022-10-12T14:23:02.210Z,100578.63
2022-10-12T14:25:30.936Z,100577.62
2022-10-12T14:28:00.821Z,100574.38
2022-10-12T14:30:36.766Z,100565.34
2022-10-12T14:33:13.180Z,100571.88
2022-10-12T14:35:43.778Z,100578.03
2022-10-12T14:38:37.230Z,100569.81
2022-10-12T14:41:29.386Z,100569.31
2022-10-12T14:44:09.661Z,100567.13
2022-10-12T14:46:43.090Z,100566.31
2022-10-12T14:49:17.216Z,100567.00
2022-10-12T14:51:44.607Z,100571.91
2022-10-12T14:54:12.560Z,100569.16
2022-10-12T14:56:40.035Z,100571.75
2022-10-12T14:59:07.409Z,100569.16
2022-10-12T15:01:39.384Z,100562.53
2022-10-12T15:04:12.623Z,100567.66
2022-10-12T15:06:41.107Z,100566.72
2022-10-12T15:09:08.949Z,100563.38
2022-10-12T15:11:36.300Z,100562.56
2022-10-12T15:14:03.901Z,100561.03
2022-10-12T15:16:33.254Z,100566.56
2022-10-12T15:19:00.598Z,100573.13
2022-10-12T15:21:28.198Z,100564.12
2022-10-12T15:23:57.076Z,100565.16
2022-10-12T15:26:24.502Z,100565.75
2022-10-12T15:28:52.722Z,100567.34
2022-10-12T15:31:20.171Z,100569.37
2022-10-12T15:33:47.678Z,100569.59
2022-10-12T15:36:15.263Z,100561.66
2022-10-12T15:38:42.643Z,100564.00
2022-10-12T15:41:18.108Z,100565.16
2022-10-12T15:43:45.702Z,100560.53
2022-10-12T15:46:13.047Z,100557.41
2022-10-12T15:48:40.531Z,100564.50
2022-10-12T15:51:16.209Z,100560.59
2022-10-12T15:53:44.971Z,100568.75
2022-10-12T15:56:14.363Z,100564.75
2022-10-12T15:58:41.716Z,100566.16
2022-10-12T16:01:17.559Z,100563.16
2022-10-12T16:03:45.969Z,100573.59
2022-10-12T16:06:13.697Z,100575.22
2022-10-12T16:08:41.111Z,100566.75
2022-10-12T16:11:12.578Z,100567.97
2022-10-12T16:13:46.861Z,100568.28
2022-10-12T16:16:17.879Z,100567.00
2022-10-12T16:18:45.330Z,100569.22
2022-10-12T16:21:13.133Z,100565.94
2022-10-12T16:23:41.121Z,100569.47
2022-10-12T16:26:11.661Z,100566.47
2022-10-12T16:28:39.494Z,100565.66
2022-10-12T16:31:16.142Z,100567.56
2022-10-12T16:33:44.729Z,100557.72
2022-10-12T16:36:15.226Z,100567.06
2022-10-12T16:38:43.243Z,100564.00
2022-10-12T16:41:12.838Z,100571.41
2022-10-12T16:43:40.543Z,100565.38
2022-10-12T16:46:08.614Z,100573.09
2022-10-12T16:48:36.951Z,100565.13
2022-10-12T16:51:08.881Z,100566.75
2022-10-12T16:53:36.329Z,100568.13
2022-10-12T16:56:04.304Z,100571.69
2022-10-12T16:58:32.028Z,100566.22
2022-10-12T17:01:13.362Z,100574.47
2022-10-12T17:03:41.562Z,100576.59
2022-10-12T17:06:09.382Z,100580.19
2022-10-12T17:08:39.118Z,100584.88
2022-10-12T17:11:08.949Z,100583.81
2022-10-12T17:13:38.520Z,100585.16
2022-10-12T17:16:25.674Z,100581.56
2022-10-12T17:18:58.961Z,100576.03
2022-10-12T17:21:27.412Z,100580.63
2022-10-12T17:23:59.234Z,100580.38
2022-10-12T17:26:26.633Z,100572.50
2022-10-12T17:28:54.034Z,100581.69
2022-10-12T17:31:22.075Z,100576.72
2022-10-12T17:33:49.501Z,100583.13
2022-10-12T17:36:17.527Z,100591.84
2022-10-12T17:38:48.868Z,100589.72
2022-10-12T17:41:16.365Z,100582.41
2022-10-12T17:43:44.110Z,100586.81
2022-10-12T17:46:12.208Z,100589.31
2022-10-12T17:48:39.647Z,100592.03
2022-10-12T17:51:09.886Z,100585.69
2022-10-12T17:53:38.159Z,100596.37
2022-10-12T17:56:06.576Z,100591.78
2022-10-12T17:58:34.828Z,100601.00
2022-10-12T18:01:11.164Z,100588.28
2022-10-12T18:03:41.300Z,100597.16
2022-10-12T18:06:12.268Z,100602.44
2022-10-12T18:08:40.218Z,100590.31
2022-10-12T18:11:07.950Z,100589.50
2022-10-12T18:13:36.565Z,100593.63
2022-10-12T18:16:10.496Z,100589.50
2022-10-12T18:18:38.704Z,100595.34
2022-10-12T18:21:07.263Z,100586.06
2022-10-12T18:23:35.069Z,100587.56
2022-10-12T18:26:07.778Z,100587.25
2022-10-12T18:28:36.339Z,100591.16
2022-10-12T18:31:04.399Z,100591.81
2022-10-12T18:33:33.011Z,100592.72
2022-10-12T18:36:05.950Z,100594.13
2022-10-12T18:38:34.128Z,100597.31
2022-10-12T18:41:06.390Z,100589.94
2022-10-12T18:43:34.165Z,100596.91
2022-10-12T18:46:09.147Z,100602.59
2022-10-12T18:48:36.730Z,100594.09
2022-10-12T18:51:15.331Z,100590.81
2022-10-12T18:53:43.223Z,100599.47
2022-10-12T18:56:11.269Z,100599.44
2022-10-12T18:58:39.115Z,100599.47
2022-10-12T19:01:24.483Z,100601.94
2022-10-12T19:03:54.524Z,100601.91
2022-10-12T19:06:25.052Z,100596.97
2022-10-12T19:08:55.022Z,100602.81
2022-10-12T19:11:24.522Z,100601.50
2022-10-12T19:13:57.703Z,100608.56
2022-10-12T19:16:26.653Z,100608.75
2022-10-12T19:18:59.449Z,100610.28
2022-10-12T19:21:27.873Z,100614.88
2022-10-12T19:23:55.845Z,100614.47
2022-10-12T19:26:27.076Z,100620.56
2022-10-12T19:28:56.166Z,100619.06
2022-10-12T19:34:14.122Z,100607.75
2022-10-12T19:36:42.129Z,100610.37
2022-10-12T19:39:17.259Z,100613.97
2022-10-12T19:41:45.928Z,100609.78
2022-10-12T19:44:13.746Z,100604.88
2022-10-12T19:46:42.722Z,100603.81
2022-10-12T19:49:13.547Z,100610.50
2022-10-12T19:51:41.277Z,100613.31
2022-10-12T19:54:15.066Z,100616.19
2022-10-12T19:56:43.256Z,100606.87
2022-10-12T19:59:10.934Z,100603.72
2022-10-12T20:01:40.141Z,100605.47
2022-10-12T20:04:10.471Z,100613.56
2022-10-12T20:06:38.270Z,100614.06
2022-10-12T20:09:07.117Z,100606.28
2022-10-12T20:11:35.696Z,100612.16
2022-10-12T20:14:03.381Z,100617.28
2022-10-12T20:16:34.866Z,100617.53
2022-10-12T20:19:04.659Z,100616.84
2022-10-12T20:21:32.107Z,100613.16
2022-10-12T20:23:59.453Z,100622.16
2022-10-12T20:26:27.343Z,100618.34
2022-10-12T20:28:54.896Z,100614.56
2022-10-12T20:31:27.505Z,100628.44
2022-10-12T20:33:56.109Z,100627.13
2022-10-12T20:36:29.142Z,100626.84
2022-10-12T20:39:00.065Z,100621.31
2022-10-12T20:41:27.863Z,100614.31
2022-10-12T20:43:59.259Z,100618.22
2022-10-12T20:46:27.903Z,100618.53
2022-10-12T20:48:58.806Z,100626.69
2022-10-12T20:51:29.512Z,100622.72
2022-10-12T20:54:00.362Z,100619.91
2022-10-12T20:56:29.236Z,100625.34
2022-10-12T20:58:58.053Z,100631.06
2022-10-12T21:01:26.253Z,100632.97
2022-10-12T21:03:54.343Z,100633.81
2022-10-12T21:06:23.604Z,100627.34
2022-10-12T21:08:55.587Z,100631.53
2022-10-12T21:11:25.053Z,100637.94
2022-10-12T21:13:52.611Z,100634.88
2022-10-12T21:16:20.069Z,100632.44
2022-10-12T21:18:47.955Z,100628.41
2022-10-12T21:21:17.552Z,100628.09
2022-10-12T21:23:51.005Z,100621.41
2022-10-12T21:26:21.013Z,100618.59
2022-10-12T21:28:48.507Z,100616.69
2022-10-12T21:31:16.361Z,100609.53
2022-10-12T21:33:44.363Z,100615.66
2022-10-12T21:36:15.844Z,100614.62
2022-10-12T21:38:43.691Z,100616.28
2022-10-12T21:41:12.433Z,100618.06
2022-10-12T21:43:41.571Z,100619.50
2022-10-12T21:46:12.063Z,100620.00
2022-10-12T21:48:39.676Z,100616.44
2022-10-12T21:51:08.987Z,100613.56
2022-10-12T21:53:37.342Z,100616.87
2022-10-12T21:56:06.861Z,100609.25
2022-10-12T21:58:34.450Z,100611.84
2022-10-12T22:01:11.613Z,100611.34
2022-10-12T22:03:40.169Z,100612.53
2022-10-12T22:06:11.284Z,100614.25
2022-10-12T22:08:38.887Z,100616.81
2022-10-12T22:11:12.042Z,100614.62
2022-10-12T22:13:40.194Z,100612.03
2022-10-12T22:16:11.474Z,100616.06
2022-10-12T22:18:39.482Z,100620.19
2022-10-12T22:21:11.061Z,100621.41
2022-10-12T22:23:38.411Z,100618.78
2022-10-12T22:26:09.013Z,100622.12
2022-10-12T22:28:36.700Z,100617.59
2022-10-12T22:31:08.347Z,100621.19
2022-10-12T22:33:36.195Z,100621.78
2022-10-12T22:36:05.556Z,100615.25
2022-10-12T22:38:33.054Z,100612.12
2022-10-12T22:41:05.925Z,100611.50
2022-10-12T22:43:34.738Z,100605.94
2022-10-12T22:46:02.889Z,100614.25
2022-10-12T22:48:30.528Z,100602.69
2022-10-12T22:50:58.129Z,100608.09
2022-10-12T22:53:26.502Z,100610.56
2022-10-12T22:56:02.460Z,100604.06
2022-10-12T22:58:30.189Z,100604.16
2022-10-12T23:01:11.962Z,100606.63
2022-10-12T23:03:40.079Z,100603.88
2022-10-12T23:06:11.371Z,100609.56
2022-10-12T23:08:38.791Z,100604.03
2022-10-12T23:11:08.947Z,100609.69
2022-10-12T23:13:37.454Z,100605.88
2022-10-12T23:16:10.341Z,100608.25
2022-10-12T23:18:39.158Z,100608.47
2022-10-12T23:21:14.792Z,100605.97
2022-10-12T23:23:43.505Z,100611.19
2022-10-12T23:26:14.031Z,100607.75
2022-10-12T23:28:41.933Z,100609.91
2022-10-12T23:31:13.324Z,100601.41
2022-10-12T23:33:40.934Z,100601.19
2022-10-12T23:36:11.826Z,100605.47
2022-10-12T23:38:40.992Z,100608.00
2022-10-12T23:41:09.193Z,100605.50
2022-10-12T23:43:36.758Z,100613.91
2022-10-12T23:46:05.228Z,100612.12
2022-10-12T23:48:33.263Z,100612.38
2022-10-12T23:51:00.859Z,100613.59
2022-10-12T23:53:28.617Z,100610.06
2022-10-12T23:55:56.360Z,100609.97
2022-10-12T23:58:23.740Z,100612.41
